Time;durP1;ratioP1;P1;durP2;ratioP2;P2;SDS_P1;SDS_P2;PMS_P1;PMS_P2;Temp;Humidity;BMP_temperature;BMP_pressure;BME280_temperature;BME280_humidity;BME280_pressure;Samples;Min_cycle;Max_cycle;Signal;HPM_P1;HPM_P2
2023/09/19 00:02:16;;;;;;;0.20;0.20;;;;;;;;;;4958449;28;20485;-64
2023/09/19 00:04:42;;;;;;;0.20;0.20;;;;;;;;;;4954904;28;20516;-63
2023/09/19 00:07:09;;;;;;;0.20;0.20;;;;;;;;;;4956150;28;20041;-63
2023/09/19 00:09:37;;;;;;;0.20;0.20;;;;;;;;;;4965352;28;20277;-66
2023/09/19 00:12:04;;;;;;;0.20;0.20;;;;;;;;;;4960945;28;20042;-65
2023/09/19 00:14:30;;;;;;;0.13;0.13;;;;;;;;;;4962988;28;20740;-62
2023/09/19 00:16:55;;;;;;;0.20;0.20;;;;;;;;;;4959189;28;20516;-61
2023/09/19 00:19:20;;;;;;;0.20;0.20;;;;;;;;;;4961071;28;20035;-62
2023/09/19 00:21:47;;;;;;;0.20;0.20;;;;;;;;;;4959908;28;20050;-61
2023/09/19 00:24:13;;;;;;;0.20;0.20;;;;;;;;;;4957665;28;20029;-62
2023/09/19 00:26:39;;;;;;;0.20;0.20;;;;;;;;;;4957475;28;20031;-62
2023/09/19 00:29:04;;;;;;;0.20;0.20;;;;;;;;;;4944419;28;20507;-64
2023/09/19 00:31:30;;;;;;;0.20;0.20;;;;;;;;;;4960335;28;20042;-62
2023/09/19 00:33:56;;;;;;;0.20;0.20;;;;;;;;;;4959544;28;20054;-65
2023/09/19 00:36:23;;;;;;;0.20;0.20;;;;;;;;;;4961122;28;20121;-62
2023/09/19 00:38:48;;;;;;;0.20;0.20;;;;;;;;;;4958476;28;20122;-62
2023/09/19 00:41:13;;;;;;;0.20;0.20;;;;;;;;;;4963754;28;21225;-63
2023/09/19 00:43:40;;;;;;;0.20;0.20;;;;;;;;;;4959245;28;20054;-63
2023/09/19 00:46:06;;;;;;;0.20;0.20;;;;;;;;;;4959985;28;20699;-62
2023/09/19 00:48:32;;;;;;;0.20;0.20;;;;;;;;;;4957811;28;20065;-63
2023/09/19 00:51:01;;;;;;;0.20;0.20;;;;;;;;;;4957921;28;20776;-62
2023/09/19 00:53:27;;;;;;;0.20;0.20;;;;;;;;;;4964531;28;20030;-64
2023/09/19 00:55:53;;;;;;;0.20;0.20;;;;;;;;;;4964042;28;20129;-62
2023/09/19 00:58:19;;;;;;;0.20;0.20;;;;;;;;;;4961877;28;20114;-62
2023/09/19 01:00:44;;;;;;;0.20;0.20;;;;;;;;;;4956081;28;20058;-62
2023/09/19 01:03:10;;;;;;;0.20;0.20;;;;;;;;;;4957691;28;20191;-63
2023/09/19 01:05:35;;;;;;;0.10;0.10;;;;;;;;;;4957654;28;20042;-64
2023/09/19 01:08:01;;;;;;;0.20;0.20;;;;;;;;;;4954764;28;20051;-64
2023/09/19 01:10:26;;;;;;;0.20;0.20;;;;;;;;;;4953034;28;20086;-62
2023/09/19 01:13:05;;;;;;;0.20;0.20;;;;;;;;;;4955023;28;20040;-62
2023/09/19 01:15:40;;;;;;;0.10;0.10;;;;;;;;;;4951385;28;20202;-64
2023/09/19 01:18:06;;;;;;;0.20;0.20;;;;;;;;;;4961964;28;20034;-63
2023/09/19 01:20:31;;;;;;;0.20;0.20;;;;;;;;;;4962670;28;20035;-63
2023/09/19 01:23:03;;;;;;;0.20;0.20;;;;;;;;;;4949164;28;20031;-64
2023/09/19 01:25:41;;;;;;;0.20;0.20;;;;;;;;;;4954100;28;20113;-62
2023/09/19 01:28:11;;;;;;;0.20;0.20;;;;;;;;;;4959330;28;20038;-64
2023/09/19 01:30:39;;;;;;;0.20;0.20;;;;;;;;;;4956748;28;20053;-62
2023/09/19 01:33:06;;;;;;;0.20;0.20;;;;;;;;;;4961633;28;20625;-62
2023/09/19 01:35:32;;;;;;;0.20;0.20;;;;;;;;;;4956769;28;20038;-63
2023/09/19 01:37:58;;;;;;;0.20;0.20;;;;;;;;;;4958054;28;20042;-64
2023/09/19 01:40:24;;;;;;;0.20;0.20;;;;;;;;;;4956400;28;20035;-64
2023/09/19 01:42:57;;;;;;;0.20;0.20;;;;;;;;;;4957811;28;20113;-62
2023/09/19 01:45:22;;;;;;;0.20;0.20;;;;;;;;;;4960179;28;20539;-65
2023/09/19 01:48:01;;;;;;;0.20;0.20;;;;;;;;;;4952330;28;20106;-63
2023/09/19 01:50:31;;;;;;;0.15;0.15;;;;;;;;;;4960651;28;21987;-62
2023/09/19 01:53:09;;;;;;;0.20;0.20;;;;;;;;;;4952874;28;20822;-63
2023/09/19 01:55:37;;;;;;;0.20;0.20;;;;;;;;;;4953115;28;20031;-65
2023/09/19 01:58:15;;;;;;;0.20;0.20;;;;;;;;;;4945604;28;20448;-63
2023/09/19 02:00:42;;;;;;;0.20;0.20;;;;;;;;;;4952499;28;20035;-64
2023/09/19 02:03:08;;;;;;;0.20;0.20;;;;;;;;;;4971199;28;20074;-64
2023/09/19 02:05:34;;;;;;;0.10;0.10;;;;;;;;;;4960840;28;20031;-64
2023/09/19 02:08:00;;;;;;;0.20;0.20;;;;;;;;;;4961079;28;20085;-65
2023/09/19 02:10:26;;;;;;;0.20;0.20;;;;;;;;;;4964515;28;20063;-64
2023/09/19 02:12:51;;;;;;;0.20;0.20;;;;;;;;;;4963069;28;20146;-65
2023/09/19 02:15:16;;;;;;;0.20;0.20;;;;;;;;;;4962844;28;20674;-63
2023/09/19 02:17:43;;;;;;;0.20;0.20;;;;;;;;;;4958949;28;20023;-64
2023/09/19 02:20:10;;;;;;;0.20;0.20;;;;;;;;;;4959368;28;20031;-65
2023/09/19 02:22:36;;;;;;;0.20;0.20;;;;;;;;;;4960938;28;20039;-65
2023/09/19 02:25:01;;;;;;;0.20;0.20;;;;;;;;;;4961265;28;20049;-63
2023/09/19 02:27:27;;;;;;;0.20;0.20;;;;;;;;;;4959531;28;20030;-63
2023/09/19 02:29:52;;;;;;;0.20;0.20;;;;;;;;;;4964347;28;20782;-63
2023/09/19 02:32:18;;;;;;;0.20;0.20;;;;;;;;;;4961289;28;20035;-67
2023/09/19 02:34:44;;;;;;;0.20;0.20;;;;;;;;;;4966522;28;20055;-61
2023/09/19 02:37:10;;;;;;;0.20;0.20;;;;;;;;;;4958222;28;20035;-63
2023/09/19 02:39:35;;;;;;;0.20;0.20;;;;;;;;;;4965000;28;20041;-62
2023/09/19 02:42:01;;;;;;;0.20;0.20;;;;;;;;;;4962520;28;20042;-64
2023/09/19 02:44:27;;;;;;;0.20;0.20;;;;;;;;;;4956985;28;20074;-65
2023/09/19 02:46:52;;;;;;;0.20;0.20;;;;;;;;;;4959488;28;20052;-62
2023/09/19 02:49:18;;;;;;;0.20;0.20;;;;;;;;;;4964530;28;20042;-64
2023/09/19 02:51:44;;;;;;;0.20;0.20;;;;;;;;;;4960491;28;20079;-63
2023/09/19 02:54:09;;;;;;;0.20;0.20;;;;;;;;;;4961122;28;20047;-61
2023/09/19 02:56:35;;;;;;;0.20;0.20;;;;;;;;;;4962691;28;20022;-62
2023/09/19 02:59:00;;;;;;;0.20;0.20;;;;;;;;;;4963831;28;20031;-62
2023/09/19 03:01:28;;;;;;;0.13;0.13;;;;;;;;;;4962685;28;20035;-66
2023/09/19 03:03:53;;;;;;;0.20;0.20;;;;;;;;;;4971987;28;20035;-64
2023/09/19 03:06:19;;;;;;;0.20;0.20;;;;;;;;;;4964122;28;20087;-62
2023/09/19 03:08:46;;;;;;;0.30;0.30;;;;;;;;;;4959658;28;20309;-62
2023/09/19 03:11:12;;;;;;;0.20;0.20;;;;;;;;;;4964176;28;20039;-65
2023/09/19 03:13:41;;;;;;;0.20;0.20;;;;;;;;;;4960904;28;20043;-62
2023/09/19 03:16:07;;;;;;;;;;;;;;;;;;4962759;28;20031;-62
2023/09/19 03:18:34;;;;;;;0.20;0.20;;;;;;;;;;4960377;28;20291;-65
2023/09/19 03:21:02;;;;;;;0.20;0.20;;;;;;;;;;4960027;28;20035;-65
2023/09/19 03:23:28;;;;;;;0.20;0.20;;;;;;;;;;4961560;28;20031;-64
2023/09/19 03:25:56;;;;;;;0.20;0.20;;;;;;;;;;4960784;28;20062;-64
2023/09/19 03:28:22;;;;;;;0.20;0.20;;;;;;;;;;4963005;28;20038;-64
2023/09/19 03:31:00;;;;;;;0.20;0.20;;;;;;;;;;4959358;28;20073;-64
2023/09/19 03:33:26;;;;;;;0.20;0.20;;;;;;;;;;4959905;28;20462;-63
2023/09/19 03:35:52;;;;;;;0.20;0.20;;;;;;;;;;4959366;28;20129;-65
2023/09/19 03:38:17;;;;;;;0.20;0.20;;;;;;;;;;4960406;28;20054;-64
2023/09/19 03:40:43;;;;;;;0.20;0.20;;;;;;;;;;4962479;28;20698;-64
2023/09/19 03:43:08;;;;;;;0.20;0.20;;;;;;;;;;4956405;28;20037;-67
2023/09/19 03:45:34;;;;;;;0.20;0.20;;;;;;;;;;4962209;28;20038;-63
2023/09/19 03:47:59;;;;;;;0.20;0.20;;;;;;;;;;4964040;28;20121;-62
2023/09/19 03:50:25;;;;;;;0.20;0.20;;;;;;;;;;4963258;28;20497;-63
2023/09/19 03:52:55;;;;;;;0.20;0.20;;;;;;;;;;4959105;28;20043;-63
2023/09/19 03:55:21;;;;;;;0.20;0.20;;;;;;;;;;4960907;28;20035;-64
2023/09/19 03:57:50;;;;;;;0.20;0.20;;;;;;;;;;4961188;28;20041;-63
2023/09/19 04:00:18;;;;;;;0.20;0.20;;;;;;;;;;4957797;28;20564;-63
2023/09/19 04:02:43;;;;;;;0.20;0.20;;;;;;;;;;4958221;28;20030;-61
2023/09/19 04:05:10;;;;;;;0.20;0.20;;;;;;;;;;4961382;28;20104;-63
2023/09/19 04:07:36;;;;;;;0.20;0.20;;;;;;;;;;4949543;28;20062;-62
2023/09/19 04:10:01;;;;;;;0.20;0.20;;;;;;;;;;4958752;28;20122;-64
2023/09/19 04:12:27;;;;;;;0.20;0.20;;;;;;;;;;4959467;28;20039;-62
2023/09/19 04:14:52;;;;;;;0.20;0.20;;;;;;;;;;4958795;28;20524;-65
2023/09/19 04:17:18;;;;;;;0.20;0.20;;;;;;;;;;4954572;28;20030;-63
2023/09/19 04:19:45;;;;;;;0.20;0.20;;;;;;;;;;4955632;28;20046;-64
2023/09/19 04:22:12;;;;;;;0.20;0.20;;;;;;;;;;4962611;28;20094;-63
2023/09/19 04:24:37;;;;;;;0.20;0.20;;;;;;;;;;4957935;28;20027;-63
2023/09/19 04:27:03;;;;;;;0.20;0.20;;;;;;;;;;4955931;28;20038;-65
2023/09/19 04:29:29;;;;;;;0.20;0.20;;;;;;;;;;4963414;28;20025;-66
2023/09/19 04:31:54;;;;;;;0.20;0.20;;;;;;;;;;4956006;28;20058;-63
2023/09/19 04:34:19;;;;;;;0.20;0.20;;;;;;;;;;4956074;28;20122;-62
2023/09/19 04:36:45;;;;;;;0.20;0.20;;;;;;;;;;4961035;28;20030;-66
2023/09/19 04:39:10;;;;;;;0.20;0.20;;;;;;;;;;4956248;28;20521;-66
2023/09/19 04:41:38;;;;;;;0.20;0.20;;;;;;;;;;4961453;28;20035;-64
2023/09/19 04:44:04;;;;;;;0.20;0.20;;;;;;;;;;4955549;28;20453;-62
2023/09/19 04:46:29;;;;;;;0.20;0.20;;;;;;;;;;4961308;28;20536;-65
2023/09/19 04:48:55;;;;;;;0.20;0.20;;;;;;;;;;4957322;28;20046;-66
2023/09/19 04:51:20;;;;;;;0.20;0.20;;;;;;;;;;4955627;28;20039;-63
2023/09/19 04:53:46;;;;;;;0.20;0.20;;;;;;;;;;4957040;28;20036;-62
2023/09/19 04:56:11;;;;;;;0.20;0.20;;;;;;;;;;4959562;28;20381;-64
2023/09/19 04:58:36;;;;;;;0.30;0.30;;;;;;;;;;4954377;28;20484;-64
2023/09/19 05:01:05;;;;;;;0.20;0.20;;;;;;;;;;4960595;28;20161;-63
2023/09/19 05:03:30;;;;;;;0.20;0.20;;;;;;;;;;4950586;28;20147;-63
2023/09/19 05:05:55;;;;;;;0.20;0.20;;;;;;;;;;4955521;28;20675;-66
2023/09/19 05:08:22;;;;;;;0.20;0.20;;;;;;;;;;4953498;28;20336;-63
2023/09/19 05:10:47;;;;;;;0.30;0.30;;;;;;;;;;4957258;28;20050;-63
2023/09/19 05:13:13;;;;;;;0.20;0.20;;;;;;;;;;4957103;28;20066;-62
2023/09/19 05:15:39;;;;;;;0.20;0.20;;;;;;;;;;4954804;28;20031;-63
2023/09/19 05:18:06;;;;;;;0.20;0.20;;;;;;;;;;4955582;28;20077;-64
2023/09/19 05:20:33;;;;;;;0.20;0.20;;;;;;;;;;4956562;28;20096;-62
2023/09/19 05:23:01;;;;;;;;;;;;;;;;;;4958301;28;20035;-61
2023/09/19 05:25:29;;;;;;;0.20;0.20;;;;;;;;;;4953162;28;19914;-62
2023/09/19 05:27:54;;;;;;;0.20;0.20;;;;;;;;;;4959052;28;20045;-63
2023/09/19 05:30:20;;;;;;;0.30;0.30;;;;;;;;;;4954787;28;20026;-66
2023/09/19 05:32:45;;;;;;;0.20;0.20;;;;;;;;;;4959780;28;20035;-68
2023/09/19 05:35:13;;;;;;;0.20;0.20;;;;;;;;;;4953921;28;20257;-70
2023/09/19 05:37:38;;;;;;;0.20;0.20;;;;;;;;;;4956626;28;20023;-71
2023/09/19 05:40:10;;;;;;;0.30;0.30;;;;;;;;;;4956199;28;20034;-70
2023/09/19 05:42:35;;;;;;;0.30;0.30;;;;;;;;;;4956003;28;20556;-68
2023/09/19 05:45:00;;;;;;;0.30;0.30;;;;;;;;;;4957152;28;20039;-70
2023/09/19 05:47:25;;;;;;;0.30;0.30;;;;;;;;;;4959325;28;20556;-71
2023/09/19 05:49:52;;;;;;;0.30;0.30;;;;;;;;;;4959778;28;20065;-67
2023/09/19 05:52:17;;;;;;;0.30;0.30;;;;;;;;;;4957045;28;20039;-64
2023/09/19 05:54:43;;;;;;;0.20;0.20;;;;;;;;;;4957409;28;20031;-64
2023/09/19 05:57:08;;;;;;;0.30;0.30;;;;;;;;;;4958323;28;20138;-65
2023/09/19 05:59:34;;;;;;;0.30;0.30;;;;;;;;;;4965832;28;20033;-64
2023/09/19 06:02:00;;;;;;;0.25;0.25;;;;;;;;;;4922088;28;1077023;-64
2023/09/19 06:04:25;;;;;;;0.30;0.30;;;;;;;;;;4960843;28;20050;-64
2023/09/19 06:06:51;;;;;;;0.30;0.30;;;;;;;;;;4944925;28;20285;-64
2023/09/19 06:09:17;;;;;;;0.30;0.30;;;;;;;;;;4959440;28;20034;-63
2023/09/19 06:11:42;;;;;;;0.30;0.30;;;;;;;;;;4959861;28;20043;-63
2023/09/19 06:14:07;;;;;;;0.30;0.30;;;;;;;;;;4960255;28;20137;-60
2023/09/19 06:16:33;;;;;;;0.30;0.30;;;;;;;;;;4968487;28;20054;-63
2023/09/19 06:19:01;;;;;;;0.30;0.30;;;;;;;;;;4964571;28;20602;-62
2023/09/19 06:21:27;;;;;;;0.30;0.30;;;;;;;;;;4960829;28;20122;-62
2023/09/19 06:23:53;;;;;;;0.30;0.30;;;;;;;;;;4963291;28;20150;-65
2023/09/19 06:26:18;;;;;;;0.30;0.30;;;;;;;;;;4963542;28;20070;-65
2023/09/19 06:28:44;;;;;;;0.30;0.30;;;;;;;;;;4959581;28;20035;-61
2023/09/19 06:31:09;;;;;;;0.20;0.20;;;;;;;;;;4959549;28;20552;-63
2023/09/19 06:33:38;;;;;;;0.30;0.30;;;;;;;;;;4960383;28;20522;-61
2023/09/19 06:36:04;;;;;;;0.30;0.30;;;;;;;;;;4967769;28;20690;-64
2023/09/19 06:38:30;;;;;;;0.30;0.30;;;;;;;;;;4957736;28;20536;-62
2023/09/19 06:40:55;;;;;;;0.30;0.30;;;;;;;;;;4963685;28;20035;-61
2023/09/19 06:43:20;;;;;;;0.30;0.30;;;;;;;;;;4966286;28;20035;-62
2023/09/19 06:45:46;;;;;;;0.30;0.30;;;;;;;;;;4957942;28;20118;-65
2023/09/19 06:48:12;;;;;;;0.30;0.30;;;;;;;;;;4960254;28;20039;-62
2023/09/19 06:50:38;;;;;;;0.30;0.30;;;;;;;;;;4958437;28;20384;-61
2023/09/19 06:53:03;;;;;;;0.30;0.30;;;;;;;;;;4960229;28;20073;-66
2023/09/19 06:55:31;;;;;;;0.30;0.30;;;;;;;;;;4963101;28;20806;-62
2023/09/19 06:57:57;;;;;;;0.30;0.30;;;;;;;;;;4962675;28;20445;-64
2023/09/19 07:00:23;;;;;;;0.30;0.30;;;;;;;;;;4964923;28;20039;-67
2023/09/19 07:03:00;;;;;;;0.30;0.30;;;;;;;;;;4959329;28;20802;-66
2023/09/19 07:05:27;;;;;;;0.30;0.30;;;;;;;;;;4961111;28;20023;-62
2023/09/19 07:07:54;;;;;;;0.30;0.30;;;;;;;;;;4966764;28;20469;-67
2023/09/19 07:10:20;;;;;;;0.30;0.30;;;;;;;;;;4956546;28;20066;-61
2023/09/19 07:12:45;;;;;;;0.30;0.30;;;;;;;;;;4956994;28;20118;-64
2023/09/19 07:15:10;;;;;;;0.30;0.30;;;;;;;;;;4959372;28;20146;-67
2023/09/19 07:17:36;;;;;;;0.30;0.30;;;;;;;;;;4959058;28;20049;-64
2023/09/19 07:20:07;;;;;;;0.30;0.30;;;;;;;;;;4957455;28;20058;-64
2023/09/19 07:22:32;;;;;;;0.30;0.30;;;;;;;;;;4956644;28;20724;-67
2023/09/19 07:24:58;;;;;;;0.30;0.30;;;;;;;;;;4955194;28;20038;-63
2023/09/19 07:27:23;;;;;;;0.30;0.30;;;;;;;;;;4958380;28;20113;-64
2023/09/19 07:29:48;;;;;;;0.30;0.30;;;;;;;;;;4962399;28;20512;-63
2023/09/19 07:32:14;;;;;;;0.20;0.20;;;;;;;;;;4956360;28;20104;-67
2023/09/19 07:34:40;;;;;;;0.25;0.25;;;;;;;;;;4955362;28;20038;-67
2023/09/19 07:37:06;;;;;;;0.30;0.30;;;;;;;;;;4954463;28;20024;-66
2023/09/19 07:39:31;;;;;;;0.20;0.20;;;;;;;;;;4959078;28;20039;-67
2023/09/19 07:41:57;;;;;;;0.20;0.20;;;;;;;;;;4954365;28;20039;-64
2023/09/19 07:44:22;;;;;;;0.30;0.30;;;;;;;;;;4957337;28;20114;-62
2023/09/19 07:46:50;;;;;;;0.20;0.20;;;;;;;;;;4954684;28;20035;-64
2023/09/19 07:49:17;;;;;;;0.30;0.30;;;;;;;;;;4957840;28;20035;-67
2023/09/19 07:51:46;;;;;;;0.30;0.30;;;;;;;;;;4957574;28;20078;-66
2023/09/19 07:54:14;;;;;;;0.30;0.30;;;;;;;;;;4957316;28;20038;-64
2023/09/19 07:56:40;;;;;;;0.30;0.30;;;;;;;;;;4956948;28;20812;-63
2023/09/19 07:59:05;;;;;;;0.30;0.30;;;;;;;;;;4959880;28;20041;-64
2023/09/19 08:01:31;;;;;;;0.20;0.20;;;;;;;;;;4955186;28;20066;-63
2023/09/19 08:03:56;;;;;;;0.30;0.30;;;;;;;;;;4954509;28;20050;-62
2023/09/19 08:06:22;;;;;;;0.30;0.30;;;;;;;;;;4956896;28;20031;-65
2023/09/19 08:08:50;;;;;;;0.20;0.20;;;;;;;;;;4958351;28;20070;-68
2023/09/19 08:11:21;;;;;;;0.22;0.22;;;;;;;;;;4955574;28;20039;-65
2023/09/19 08:13:48;;;;;;;0.20;0.20;;;;;;;;;;4961089;28;20035;-63
2023/09/19 08:16:22;;;;;;;0.20;0.20;;;;;;;;;;4957237;28;20126;-65
2023/09/19 08:18:48;;;;;;;0.20;0.20;;;;;;;;;;4959129;28;20075;-66
2023/09/19 08:21:14;;;;;;;0.20;0.20;;;;;;;;;;4961909;28;20058;-67
2023/09/19 08:23:40;;;;;;;0.20;0.20;;;;;;;;;;4957782;28;20093;-66
2023/09/19 08:26:08;;;;;;;0.23;0.23;;;;;;;;;;4961429;28;20459;-65
2023/09/19 08:28:34;;;;;;;0.20;0.20;;;;;;;;;;4958593;28;20043;-64
2023/09/19 08:31:04;;;;;;;0.22;0.22;;;;;;;;;;4960550;28;20035;-63
2023/09/19 08:33:31;;;;;;;0.20;0.20;;;;;;;;;;4960100;28;20392;-68
2023/09/19 08:35:56;;;;;;;0.30;0.30;;;;;;;;;;4956620;28;20035;-65
2023/09/19 08:38:21;;;;;;;0.20;0.20;;;;;;;;;;4957004;28;20042;-64
2023/09/19 08:40:47;;;;;;;0.20;0.20;;;;;;;;;;4956806;28;20034;-67
2023/09/19 08:43:12;;;;;;;0.20;0.20;;;;;;;;;;4955481;28;20118;-63
2023/09/19 08:45:38;;;;;;;0.20;0.20;;;;;;;;;;4957202;28;20863;-64
2023/09/19 08:48:16;;;;;;;0.20;0.20;;;;;;;;;;4958452;28;20523;-65
2023/09/19 08:50:52;;;;;;;0.20;0.20;;;;;;;;;;4960824;28;20427;-63
2023/09/19 08:53:34;;;;;;;0.20;0.20;;;;;;;;;;4957042;28;20114;-66
2023/09/19 08:56:03;;;;;;;0.20;0.20;;;;;;;;;;4958394;28;20074;-66
2023/09/19 08:58:33;;;;;;;0.20;0.20;;;;;;;;;;4953634;28;20042;-63
2023/09/19 09:01:01;;;;;;;0.20;0.20;;;;;;;;;;4963816;28;20156;-64
2023/09/19 09:03:26;;;;;;;0.20;0.20;;;;;;;;;;4965658;28;20043;-64
2023/09/19 09:05:52;;;;;;;0.10;0.10;;;;;;;;;;4954588;28;20034;-66
2023/09/19 09:08:20;;;;;;;0.20;0.20;;;;;;;;;;4954601;28;20481;-63
2023/09/19 09:10:45;;;;;;;0.20;0.20;;;;;;;;;;4958019;28;20393;-65
2023/09/19 09:13:13;;;;;;;0.20;0.20;;;;;;;;;;4959599;28;20039;-64
2023/09/19 09:15:40;;;;;;;0.20;0.20;;;;;;;;;;4960557;28;20497;-67
2023/09/19 09:18:06;;;;;;;0.10;0.10;;;;;;;;;;4958814;28;20102;-67
2023/09/19 09:20:31;;;;;;;0.10;0.10;;;;;;;;;;4958461;28;20666;-66
2023/09/19 09:23:03;;;;;;;0.20;0.20;;;;;;;;;;4952774;28;20114;-64
2023/09/19 09:25:54;;;;;;;0.10;0.10;;;;;;;;;;4956167;28;20163;-62
2023/09/19 09:28:21;;;;;;;0.10;0.10;;;;;;;;;;4964100;28;20658;-67
2023/09/19 09:30:46;;;;;;;0.20;0.20;;;;;;;;;;4955642;28;20225;-63
2023/09/19 09:33:13;;;;;;;0.10;0.10;;;;;;;;;;4953414;28;20030;-67
2023/09/19 09:35:51;;;;;;;0.10;0.10;;;;;;;;;;4960166;28;20038;-63
2023/09/19 09:38:18;;;;;;;0.10;0.10;;;;;;;;;;4957773;28;20054;-65
2023/09/19 09:40:52;;;;;;;0.20;0.20;;;;;;;;;;4963793;28;20059;-64
2023/09/19 09:43:28;;;;;;;0.10;0.10;;;;;;;;;;4959923;28;20043;-63
2023/09/19 09:49:15;;;;;;;0.10;0.10;;;;;;;;;;4953147;28;20031;-64
2023/09/19 09:51:43;;;;;;;0.10;0.10;;;;;;;;;;4959954;28;20066;-63
2023/09/19 09:54:12;;;;;;;0.10;0.10;;;;;;;;;;4959391;28;20119;-65
2023/09/19 09:57:00;;;;;;;0.10;0.10;;;;;;;;;;4956677;28;20046;-64
2023/09/19 09:59:46;;;;;;;0.20;0.20;;;;;;;;;;4958813;28;20035;-62
2023/09/19 10:02:20;;;;;;;0.10;0.10;;;;;;;;;;4963752;28;20038;-64
2023/09/19 10:04:51;;;;;;;0.10;0.10;;;;;;;;;;4956794;28;20274;-68
2023/09/19 10:07:49;;;;;;;0.10;0.10;;;;;;;;;;4960109;28;20385;-63
2023/09/19 10:10:23;;;;;;;0.13;0.13;;;;;;;;;;4961832;28;20344;-64
2023/09/19 10:12:55;;;;;;;0.20;0.20;;;;;;;;;;4957921;28;20457;-64
2023/09/19 10:15:24;;;;;;;0.13;0.13;;;;;;;;;;4955097;28;20030;-63
2023/09/19 10:17:56;;;;;;;0.10;0.10;;;;;;;;;;4961920;28;20081;-64
2023/09/19 10:20:35;;;;;;;0.10;0.10;;;;;;;;;;4954263;28;20062;-64
2023/09/19 10:23:03;;;;;;;0.10;0.10;;;;;;;;;;4952851;28;20051;-65
2023/09/19 10:25:28;;;;;;;0.10;0.10;;;;;;;;;;4955690;28;20031;-65
2023/09/19 10:27:55;;;;;;;0.10;0.10;;;;;;;;;;4965933;28;20031;-63
2023/09/19 10:30:22;;;;;;;0.10;0.10;;;;;;;;;;4957973;28;20031;-63
2023/09/19 10:32:53;;;;;;;0.10;0.10;;;;;;;;;;4960362;28;20043;-63
2023/09/19 10:35:19;;;;;;;0.10;0.10;;;;;;;;;;4958359;28;20078;-65
2023/09/19 10:37:49;;;;;;;0.20;0.20;;;;;;;;;;4959262;28;20039;-63
2023/09/19 10:40:16;;;;;;;0.10;0.10;;;;;;;;;;4958681;28;20043;-64
2023/09/19 10:42:42;;;;;;;0.10;0.10;;;;;;;;;;4960435;28;20121;-66
2023/09/19 10:45:12;;;;;;;0.10;0.10;;;;;;;;;;4958096;28;20039;-62
2023/09/19 10:47:38;;;;;;;0.10;0.10;;;;;;;;;;4958308;28;20039;-64
2023/09/19 10:50:05;;;;;;;0.10;0.10;;;;;;;;;;4960149;28;20047;-63
2023/09/19 10:52:33;;;;;;;0.10;0.10;;;;;;;;;;4959694;28;20039;-64
2023/09/19 10:55:01;;;;;;;0.10;0.10;;;;;;;;;;4960968;28;20479;-65
2023/09/19 10:57:28;;;;;;;0.10;0.10;;;;;;;;;;4964886;28;20490;-64
2023/09/19 10:59:55;;;;;;;;;;;;;;;;;;4955811;28;20042;-65
2023/09/19 11:02:20;;;;;;;0.10;0.10;;;;;;;;;;4958109;28;19917;-64
2023/09/19 11:04:48;;;;;;;0.13;0.13;;;;;;;;;;4959857;28;20035;-64
2023/09/19 11:07:15;;;;;;;0.10;0.10;;;;;;;;;;4959250;28;20027;-64
2023/09/19 11:09:53;;;;;;;0.13;0.13;;;;;;;;;;4958776;28;20062;-65
2023/09/19 11:12:24;;;;;;;0.10;0.10;;;;;;;;;;4958175;28;20555;-63
2023/09/19 11:14:49;;;;;;;0.10;0.10;;;;;;;;;;4957252;28;20027;-66
2023/09/19 11:17:21;;;;;;;0.10;0.10;;;;;;;;;;4963420;28;20101;-65
2023/09/19 11:22:50;;;;;;;0.10;0.10;;;;;;;;;;4957742;28;20035;-63
2023/09/19 11:25:29;;;;;;;0.10;0.10;;;;;;;;;;4958722;28;20152;-64
2023/09/19 11:30:38;;;;;;;0.10;0.10;;;;;;;;;;4962642;28;20404;-63
2023/09/19 11:33:23;;;;;;;0.10;0.10;;;;;;;;;;4965594;28;20039;-64
2023/09/19 11:36:08;;;;;;;0.10;0.10;;;;;;;;;;4957344;28;20038;-65
2023/09/19 11:38:42;;;;;;;0.10;0.10;;;;;;;;;;4955873;28;20066;-65
2023/09/19 11:41:20;;;;;;;0.20;0.20;;;;;;;;;;4959542;28;20490;-64
2023/09/19 11:43:46;;;;;;;0.10;0.10;;;;;;;;;;4962247;28;20039;-63
2023/09/19 11:46:11;;;;;;;0.10;0.10;;;;;;;;;;4958855;28;20541;-66
2023/09/19 11:48:38;;;;;;;0.10;0.10;;;;;;;;;;4962560;28;20117;-64
2023/09/19 11:51:14;;;;;;;0.10;0.10;;;;;;;;;;4961949;28;20113;-63
2023/09/19 11:53:40;;;;;;;0.10;0.10;;;;;;;;;;4958276;28;20420;-63
2023/09/19 11:56:07;;;;;;;0.20;0.20;;;;;;;;;;4958763;28;20042;-63
2023/09/19 11:58:33;;;;;;;0.15;0.15;;;;;;;;;;4960858;28;20035;-65
2023/09/19 12:01:01;;;;;;;0.10;0.10;;;;;;;;;;4953564;28;20023;-64
2023/09/19 12:03:29;;;;;;;0.10;0.10;;;;;;;;;;4958925;28;20559;-65
2023/09/19 12:05:55;;;;;;;0.10;0.10;;;;;;;;;;4960773;28;20211;-65
2023/09/19 12:08:21;;;;;;;0.10;0.10;;;;;;;;;;4964719;28;20550;-64
2023/09/19 12:10:55;;;;;;;0.10;0.10;;;;;;;;;;4958212;28;20057;-65
2023/09/19 12:13:21;;;;;;;0.10;0.10;;;;;;;;;;4958562;28;20078;-65
2023/09/19 12:15:49;;;;;;;0.10;0.10;;;;;;;;;;4960011;28;20098;-64
2023/09/19 12:18:30;;;;;;;0.10;0.10;;;;;;;;;;4966630;28;20101;-65
2023/09/19 12:20:57;;;;;;;0.10;0.10;;;;;;;;;;4961295;28;20035;-65
2023/09/19 12:23:22;;;;;;;0.10;0.10;;;;;;;;;;4960818;28;20419;-66
2023/09/19 12:25:52;;;;;;;0.10;0.10;;;;;;;;;;4955665;28;20039;-65
2023/09/19 12:28:17;;;;;;;0.10;0.10;;;;;;;;;;4957013;28;20027;-64
2023/09/19 12:30:42;;;;;;;0.03;0.03;;;;;;;;;;4963759;28;20034;-64
2023/09/19 12:33:25;;;;;;;0.00;0.00;;;;;;;;;;4957934;28;20070;-65
2023/09/19 12:35:53;;;;;;;0.10;0.10;;;;;;;;;;4955510;28;20033;-64
2023/09/19 12:38:37;;;;;;;0.10;0.10;;;;;;;;;;4961792;28;20027;-65
2023/09/19 12:41:02;;;;;;;0.10;0.10;;;;;;;;;;4955800;28;20054;-64
2023/09/19 12:43:33;;;;;;;0.10;0.10;;;;;;;;;;4957365;28;20027;-66
2023/09/19 12:45:59;;;;;;;0.03;0.03;;;;;;;;;;4958129;28;20556;-64
2023/09/19 12:48:34;;;;;;;0.00;0.00;;;;;;;;;;4956852;28;20093;-66
2023/09/19 12:51:00;;;;;;;0.00;0.00;;;;;;;;;;4953841;28;20047;-64
2023/09/19 12:53:29;;;;;;;0.00;0.00;;;;;;;;;;4963800;28;20035;-65
2023/09/19 12:56:00;;;;;;;0.10;0.10;;;;;;;;;;4957011;28;20035;-64
2023/09/19 12:58:26;;;;;;;0.00;0.00;;;;;;;;;;4954185;28;20053;-64
2023/09/19 13:00:52;;;;;;;0.00;0.00;;;;;;;;;;4950130;28;20037;-64
2023/09/19 13:03:24;;;;;;;0.10;0.10;;;;;;;;;;4965358;28;20413;-65
2023/09/19 13:05:55;;;;;;;0.20;0.20;;;;;;;;;;4957830;28;20034;-65
2023/09/19 13:08:21;;;;;;;0.10;0.10;;;;;;;;;;4960040;28;20022;-65
2023/09/19 13:11:12;;;;;;;0.00;0.00;;;;;;;;;;4959529;28;20039;-64
2023/09/19 13:13:53;;;;;;;0.20;0.20;;;;;;;;;;4960880;28;20035;-64
2023/09/19 13:16:21;;;;;;;0.00;0.00;;;;;;;;;;4958652;28;20037;-64
2023/09/19 13:18:50;;;;;;;0.00;0.00;;;;;;;;;;4958266;28;20039;-64
2023/09/19 13:21:22;;;;;;;0.10;0.10;;;;;;;;;;4956195;28;20066;-64
2023/09/19 13:23:50;;;;;;;0.10;0.10;;;;;;;;;;4958211;28;20030;-64
2023/09/19 13:26:16;;;;;;;0.00;0.00;;;;;;;;;;4956391;28;20082;-64
2023/09/19 13:28:41;;;;;;;0.10;0.10;;;;;;;;;;4961321;28;20421;-65
2023/09/19 13:31:06;;;;;;;0.10;0.10;;;;;;;;;;4954503;28;20540;-64
2023/09/19 13:33:33;;;;;;;0.00;0.00;;;;;;;;;;4954838;28;20018;-67
2023/09/19 13:35:58;;;;;;;0.10;0.10;;;;;;;;;;4953909;28;20035;-64
2023/09/19 13:38:24;;;;;;;0.10;0.10;;;;;;;;;;4955720;28;20081;-64
2023/09/19 13:40:49;;;;;;;0.00;0.00;;;;;;;;;;4956898;28;20031;-65
2023/09/19 13:43:15;;;;;;;0.10;0.10;;;;;;;;;;4959237;28;20495;-65
2023/09/19 13:45:43;;;;;;;0.00;0.00;;;;;;;;;;4957547;28;20039;-64
2023/09/19 13:48:11;;;;;;;0.00;0.00;;;;;;;;;;4956490;28;20070;-64
2023/09/19 13:50:36;;;;;;;0.10;0.10;;;;;;;;;;4960500;28;20082;-64
2023/09/19 13:53:02;;;;;;;0.20;0.20;;;;;;;;;;4959676;28;20734;-64
2023/09/19 13:55:27;;;;;;;0.03;0.03;;;;;;;;;;4948933;28;20023;-64
2023/09/19 13:57:54;;;;;;;0.10;0.10;;;;;;;;;;4960376;28;20126;-65
2023/09/19 14:00:20;;;;;;;0.10;0.10;;;;;;;;;;4962030;28;20062;-68
2023/09/19 14:02:46;;;;;;;0.10;0.10;;;;;;;;;;4965726;28;20055;-65
2023/09/19 14:05:14;;;;;;;0.10;0.10;;;;;;;;;;4963532;28;20035;-64
2023/09/19 14:07:43;;;;;;;0.00;0.00;;;;;;;;;;4960429;28;20035;-65
2023/09/19 14:10:10;;;;;;;0.00;0.00;;;;;;;;;;4959340;28;20042;-65
2023/09/19 14:12:40;;;;;;;0.10;0.10;;;;;;;;;;4962498;28;20043;-65
2023/09/19 14:15:07;;;;;;;0.00;0.00;;;;;;;;;;4958865;28;20035;-64
2023/09/19 14:17:32;;;;;;;0.00;0.00;;;;;;;;;;4962373;28;20038;-64
2023/09/19 14:19:58;;;;;;;0.00;0.00;;;;;;;;;;4960015;28;20163;-65
2023/09/19 14:22:23;;;;;;;0.00;0.00;;;;;;;;;;4967528;28;20547;-66
2023/09/19 14:24:48;;;;;;;0.00;0.00;;;;;;;;;;4960108;28;20392;-66
2023/09/19 14:27:14;;;;;;;0.00;0.00;;;;;;;;;;4962629;28;20279;-65
2023/09/19 14:29:41;;;;;;;;;;;;;;;;;;4958906;28;20027;-65
2023/09/19 14:32:06;;;;;;;0.00;0.00;;;;;;;;;;4959445;28;20506;-64
2023/09/19 14:34:32;;;;;;;0.00;0.00;;;;;;;;;;4964127;28;20121;-64
2023/09/19 14:36:58;;;;;;;0.00;0.00;;;;;;;;;;4961188;28;20097;-64
2023/09/19 14:39:23;;;;;;;0.00;0.00;;;;;;;;;;4961704;28;20157;-64
2023/09/19 14:41:49;;;;;;;0.00;0.00;;;;;;;;;;4957905;28;20043;-65
2023/09/19 14:44:17;;;;;;;0.00;0.00;;;;;;;;;;4958764;28;20030;-64
2023/09/19 14:46:44;;;;;;;0.00;0.00;;;;;;;;;;4956621;28;20476;-65
2023/09/19 14:49:10;;;;;;;0.00;0.00;;;;;;;;;;4959066;28;20097;-64
2023/09/19 14:51:37;;;;;;;0.00;0.00;;;;;;;;;;4958939;28;20034;-65
2023/09/19 14:54:03;;;;;;;0.00;0.00;;;;;;;;;;4959865;28;20081;-64
2023/09/19 14:56:30;;;;;;;0.00;0.00;;;;;;;;;;4958114;28;20398;-63